createdAt,value
2024-02-13T00:00:47.327Z,2.60
2024-02-13T00:03:14.330Z,2.60
2024-02-13T00:05:41.164Z,2.60
2024-02-13T00:08:11.947Z,2.50
2024-02-13T00:10:38.781Z,2.50
2024-02-13T00:13:05.596Z,2.50
2024-02-13T00:15:32.322Z,2.50
2024-02-13T00:18:01.249Z,2.40
2024-02-13T00:20:28.471Z,2.40
2024-02-13T00:22:56.454Z,2.40
2024-02-13T00:25:23.167Z,2.30
2024-02-13T00:27:50.943Z,2.40
2024-02-13T00:30:17.697Z,2.40
2024-02-13T00:32:44.450Z,2.30
2024-02-13T00:35:11.516Z,2.30
2024-02-13T00:37:38.797Z,2.30
2024-02-13T00:40:07.297Z,2.20
2024-02-13T00:42:36.922Z,2.30
2024-02-13T00:45:08.462Z,2.20
2024-02-13T00:47:35.601Z,2.20
2024-02-13T00:50:03.327Z,2.20
2024-02-13T00:52:30.056Z,2.20
2024-02-13T00:54:58.010Z,2.10
2024-02-13T00:57:30.289Z,2.10
2024-02-13T00:59:57.047Z,2.00
2024-02-13T01:02:23.896Z,2.10
2024-02-13T01:04:50.670Z,2.00
2024-02-13T01:07:18.584Z,2.10
2024-02-13T01:09:45.469Z,2.10
2024-02-13T01:12:12.137Z,2.00
2024-02-13T01:14:38.887Z,2.00
2024-02-13T01:17:05.891Z,2.00
2024-02-13T01:19:32.750Z,2.00
2024-02-13T01:21:59.532Z,2.00
2024-02-13T01:24:27.755Z,2.00
2024-02-13T01:26:55.153Z,2.00
2024-02-13T01:29:21.904Z,1.90
2024-02-13T01:31:48.917Z,1.90
2024-02-13T01:34:15.726Z,1.90
2024-02-13T01:36:42.509Z,1.90
2024-02-13T01:39:10.495Z,1.90
2024-02-13T01:41:37.209Z,1.90
2024-02-13T01:44:07.020Z,2.00
2024-02-13T01:46:34.674Z,2.00
2024-02-13T01:49:02.145Z,2.00
2024-02-13T01:51:30.698Z,2.00
2024-02-13T01:54:01.050Z,2.00
2024-02-13T01:56:30.198Z,2.00
2024-02-13T01:59:00.773Z,2.00
2024-02-13T02:01:33.490Z,1.90
2024-02-13T02:04:01.607Z,1.90
2024-02-13T02:06:28.592Z,1.80
2024-02-13T02:08:57.760Z,1.80
2024-02-13T02:11:26.538Z,1.80
2024-02-13T02:13:56.990Z,1.90
2024-02-13T02:16:23.687Z,2.10
2024-02-13T02:18:50.551Z,2.20
2024-02-13T02:21:18.200Z,2.20
2024-02-13T02:23:44.969Z,2.20
2024-02-13T02:26:12.155Z,2.30
2024-02-13T02:28:39.297Z,2.40
2024-02-13T02:31:06.353Z,2.50
2024-02-13T02:33:33.421Z,2.60
2024-02-13T02:36:00.232Z,2.70
2024-02-13T02:38:27.031Z,2.80
2024-02-13T02:40:53.908Z,2.80
2024-02-13T02:43:20.732Z,2.80
2024-02-13T02:45:47.706Z,2.80
2024-02-13T02:48:15.779Z,2.80
2024-02-13T02:50:43.278Z,2.90
2024-02-13T02:53:10.264Z,2.90
2024-02-13T02:55:37.075Z,2.90
2024-02-13T02:58:03.941Z,2.90
2024-02-13T03:00:30.919Z,3.00
2024-02-13T03:02:57.831Z,3.00
2024-02-13T03:05:26.585Z,3.00
2024-02-13T03:07:53.751Z,3.10
2024-02-13T03:10:20.428Z,3.10
2024-02-13T03:12:47.585Z,3.20
2024-02-13T03:15:14.519Z,3.30
2024-02-13T03:17:41.453Z,3.30
2024-02-13T03:20:12.317Z,3.40
2024-02-13T03:22:39.651Z,3.40
2024-02-13T03:25:06.962Z,3.40
2024-02-13T03:27:33.694Z,3.40
2024-02-13T03:30:00.541Z,3.40
2024-02-13T03:32:27.732Z,3.40
2024-02-13T03:34:55.294Z,3.40
2024-02-13T03:37:22.334Z,3.50
2024-02-13T03:39:49.216Z,3.50
2024-02-13T03:42:17.245Z,3.60
2024-02-13T03:44:44.366Z,3.60
2024-02-13T03:47:11.234Z,3.70
2024-02-13T03:49:38.075Z,3.70
2024-02-13T03:52:05.205Z,3.70
2024-02-13T03:54:31.881Z,3.80
2024-02-13T03:57:01.556Z,3.80
2024-02-13T03:59:30.411Z,3.80
2024-02-13T04:01:57.874Z,3.80
2024-02-13T04:04:24.881Z,3.80
2024-02-13T04:06:51.673Z,3.80
2024-02-13T04:09:18.893Z,3.90
2024-02-13T04:11:46.743Z,4.00
2024-02-13T04:14:14.055Z,3.90
2024-02-13T04:16:43.674Z,3.90
2024-02-13T04:19:11.927Z,4.00
2024-02-13T04:21:39.084Z,3.90
2024-02-13T04:24:08.069Z,4.00
2024-02-13T04:26:42.733Z,4.00
2024-02-13T04:29:10.028Z,4.10
2024-02-13T04:31:39.157Z,4.10
2024-02-13T04:34:07.347Z,4.10
2024-02-13T04:36:34.445Z,4.20
2024-02-13T04:39:01.352Z,4.30
2024-02-13T04:41:28.029Z,4.30
2024-02-13T04:43:55.455Z,4.40
2024-02-13T04:46:25.790Z,4.50
2024-02-13T04:48:53.398Z,4.50
2024-02-13T04:51:20.420Z,4.60
2024-02-13T04:53:47.534Z,4.60
2024-02-13T04:56:15.704Z,4.70
2024-02-13T04:58:43.028Z,4.80
2024-02-13T05:01:11.409Z,4.80
2024-02-13T05:04:04.197Z,4.90
2024-02-13T05:06:49.854Z,4.90
2024-02-13T05:09:16.816Z,4.90
2024-02-13T05:11:43.788Z,5.00
2024-02-13T05:14:10.642Z,5.00
2024-02-13T05:16:39.177Z,5.10
2024-02-13T05:21:36.794Z,5.10
2024-02-13T05:24:07.164Z,5.10
2024-02-13T05:26:34.979Z,5.20
2024-02-13T05:29:03.034Z,5.20
2024-02-13T05:31:29.776Z,5.20
2024-02-13T05:33:56.728Z,5.20
2024-02-13T05:36:23.724Z,5.20
2024-02-13T05:38:51.609Z,5.20
2024-02-13T05:41:18.473Z,5.20
2024-02-13T05:43:45.334Z,5.20
2024-02-13T05:46:12.084Z,5.20
2024-02-13T05:48:41.284Z,5.20
2024-02-13T05:51:12.323Z,5.20
2024-02-13T05:53:39.396Z,5.20
2024-02-13T05:56:06.429Z,5.20
2024-02-13T05:58:33.176Z,5.20
2024-02-13T06:01:00.136Z,5.20
2024-02-13T06:03:27.231Z,5.30
2024-02-13T06:05:56.108Z,5.20
2024-02-13T06:08:23.830Z,5.10
2024-02-13T06:10:50.866Z,5.00
2024-02-13T06:13:17.571Z,4.90
2024-02-13T06:15:45.272Z,4.80
2024-02-13T06:18:12.827Z,4.80
2024-02-13T06:20:40.177Z,4.80
2024-02-13T06:23:07.222Z,4.80
2024-02-13T06:25:34.118Z,4.70
2024-02-13T06:28:00.849Z,4.60
2024-02-13T06:30:28.018Z,4.50
2024-02-13T06:32:55.111Z,4.50
2024-02-13T06:35:22.140Z,4.50
2024-02-13T06:37:49.071Z,4.40
2024-02-13T06:40:16.203Z,4.30
2024-02-13T06:42:43.082Z,4.30
2024-02-13T06:45:11.240Z,4.20
2024-02-13T06:47:38.618Z,4.10
2024-02-13T06:50:12.325Z,4.10
2024-02-13T06:52:43.008Z,4.20
2024-02-13T06:55:09.947Z,4.20
2024-02-13T06:57:37.321Z,4.20
2024-02-13T07:00:12.849Z,4.20
2024-02-13T07:02:40.223Z,4.20
2024-02-13T07:05:07.325Z,4.30
2024-02-13T07:07:42.228Z,4.20
2024-02-13T07:10:14.720Z,4.30
2024-02-13T07:12:41.993Z,4.30
2024-02-13T07:15:09.660Z,4.40
2024-02-13T07:17:47.888Z,4.40
2024-02-13T07:20:20.427Z,4.40
2024-02-13T07:22:47.571Z,4.40
2024-02-13T07:25:16.100Z,4.40
2024-02-13T07:27:42.968Z,4.50
2024-02-13T07:30:11.733Z,4.60
2024-02-13T07:32:40.647Z,4.60
2024-02-13T07:35:07.807Z,4.60
2024-02-13T07:37:34.471Z,4.60
2024-02-13T07:40:02.087Z,4.50
2024-02-13T07:42:32.084Z,4.60
2024-02-13T07:44:59.877Z,4.70
2024-02-13T07:47:28.013Z,4.80
2024-02-13T07:49:55.825Z,4.90
2024-02-13T07:52:22.948Z,5.00
2024-02-13T07:54:49.831Z,5.20
2024-02-13T07:57:18.287Z,5.30
2024-02-13T07:59:46.001Z,5.50
2024-02-13T08:02:14.238Z,5.40
2024-02-13T08:04:41.755Z,5.50
2024-02-13T08:07:09.431Z,5.50
2024-02-13T08:09:36.740Z,5.60
2024-02-13T08:12:08.218Z,5.60
2024-02-13T08:14:36.229Z,5.70
2024-02-13T08:17:09.275Z,6.00
2024-02-13T08:19:36.418Z,6.10
2024-02-13T08:22:03.845Z,6.30
2024-02-13T08:24:30.611Z,6.50
2024-02-13T08:26:57.410Z,6.60
2024-02-13T08:29:24.221Z,6.90
2024-02-13T08:31:51.702Z,7.10
2024-02-13T08:34:19.706Z,7.30
2024-02-13T08:36:47.598Z,7.30
2024-02-13T08:39:14.458Z,7.30
2024-02-13T08:41:41.406Z,7.20
2024-02-13T08:44:11.475Z,7.20
2024-02-13T08:46:38.203Z,6.90
2024-02-13T08:49:06.113Z,6.80
2024-02-13T08:51:36.692Z,7.00
2024-02-13T08:54:05.459Z,6.80
2024-02-13T08:56:32.455Z,7.00
2024-02-13T08:59:00.351Z,6.80
2024-02-13T09:01:27.185Z,7.00
2024-02-13T09:03:53.970Z,7.00
2024-02-13T09:06:21.310Z,6.70
2024-02-13T09:08:48.408Z,6.80
2024-02-13T09:11:15.212Z,6.80
2024-02-13T09:13:42.202Z,6.80
2024-02-13T09:16:12.034Z,6.70
2024-02-13T09:18:40.221Z,6.80
2024-02-13T09:21:11.608Z,6.80
2024-02-13T09:23:38.747Z,6.50
2024-02-13T09:26:05.993Z,6.40
2024-02-13T09:28:33.208Z,6.50
2024-02-13T09:31:00.544Z,6.60
2024-02-13T09:33:28.131Z,6.60
2024-02-13T09:35:55.788Z,6.70
2024-02-13T09:38:23.143Z,6.70
2024-02-13T09:40:51.186Z,6.80
2024-02-13T09:43:19.116Z,6.60
2024-02-13T09:45:46.505Z,6.80
2024-02-13T09:48:27.045Z,6.90
2024-02-13T09:50:58.725Z,7.00
2024-02-13T09:53:29.639Z,7.30
2024-02-13T09:56:00.285Z,7.50
2024-02-13T09:58:28.189Z,7.60
2024-02-13T10:00:59.564Z,7.70
2024-02-13T10:03:29.045Z,7.70
2024-02-13T10:05:56.583Z,7.40
2024-02-13T10:08:29.064Z,7.10
2024-02-13T10:11:03.947Z,7.20
2024-02-13T10:13:45.187Z,7.30
2024-02-13T10:16:24.753Z,7.30
2024-02-13T10:18:53.264Z,7.60
2024-02-13T10:21:20.842Z,7.60
2024-02-13T10:23:49.046Z,7.60
2024-02-13T10:26:16.857Z,7.80
2024-02-13T10:28:47.988Z,8.10
2024-02-13T10:31:24.935Z,8.20
2024-02-13T10:33:51.927Z,8.20
2024-02-13T10:36:19.281Z,8.00
2024-02-13T10:38:51.017Z,8.30
2024-02-13T10:41:24.248Z,8.40
2024-02-13T10:43:54.674Z,8.20
2024-02-13T10:46:25.127Z,8.10
2024-02-13T10:49:31.065Z,7.90
2024-02-13T10:52:00.545Z,7.50
2024-02-13T10:54:27.611Z,7.30
2024-02-13T10:56:56.050Z,7.30
2024-02-13T10:59:23.921Z,7.30
2024-02-13T11:01:55.153Z,7.60
2024-02-13T11:04:22.295Z,7.80
2024-02-13T11:06:49.885Z,7.90
2024-02-13T11:09:16.648Z,8.00
2024-02-13T11:11:45.142Z,8.00
2024-02-13T11:14:30.424Z,7.80
2024-02-13T11:17:01.872Z,8.00
2024-02-13T11:19:50.177Z,8.10
2024-02-13T11:22:32.465Z,7.90
2024-02-13T11:25:07.112Z,7.70
2024-02-13T11:27:34.047Z,7.60
2024-02-13T11:30:02.465Z,7.50
2024-02-13T11:32:38.924Z,7.30
2024-02-13T11:35:11.526Z,7.40
2024-02-13T11:37:41.641Z,7.40
2024-02-13T11:40:09.650Z,7.30
2024-02-13T11:42:36.449Z,7.30
2024-02-13T11:45:09.496Z,7.20
2024-02-13T11:47:36.550Z,7.50
2024-02-13T11:50:04.358Z,7.70
2024-02-13T11:52:32.070Z,7.90
2024-02-13T11:54:59.780Z,8.00
2024-02-13T11:57:26.814Z,7.80
2024-02-13T12:00:06.382Z,8.00
2024-02-13T12:02:34.590Z,8.20
2024-02-13T12:05:01.600Z,8.30
2024-02-13T12:07:29.194Z,8.20
2024-02-13T12:09:56.129Z,8.10
2024-02-13T12:12:25.526Z,8.20
2024-02-13T12:14:53.646Z,8.10
2024-02-13T12:17:22.098Z,8.20
2024-02-13T12:19:49.611Z,8.10
2024-02-13T12:22:17.882Z,8.30
2024-02-13T12:24:48.678Z,8.50
2024-02-13T12:27:17.451Z,8.60
2024-02-13T12:29:45.070Z,8.60
2024-02-13T12:32:17.545Z,8.70
2024-02-13T12:34:48.566Z,8.80
2024-02-13T12:37:16.532Z,8.70
2024-02-13T12:39:44.699Z,8.70
2024-02-13T12:42:14.898Z,8.70
2024-02-13T12:44:42.570Z,8.90
2024-02-13T12:47:13.733Z,9.00
2024-02-13T12:49:44.187Z,8.90
2024-02-13T12:52:18.675Z,8.90
2024-02-13T12:54:48.498Z,9.00
2024-02-13T12:57:15.709Z,8.70
2024-02-13T12:59:44.630Z,8.80
2024-02-13T13:02:11.693Z,8.80
2024-02-13T13:04:38.360Z,8.80
2024-02-13T13:07:06.792Z,8.90
2024-02-13T13:09:33.745Z,9.00
2024-02-13T13:12:01.737Z,9.10
2024-02-13T13:14:29.194Z,9.00
2024-02-13T13:16:57.195Z,9.00
2024-02-13T13:19:28.400Z,9.10
2024-02-13T13:21:56.126Z,9.20
2024-02-13T13:24:24.008Z,9.30
2024-02-13T13:26:51.582Z,9.30
2024-02-13T13:29:18.876Z,9.30
2024-02-13T13:31:48.671Z,9.00
2024-02-13T13:34:21.317Z,9.20
2024-02-13T13:36:49.241Z,9.20
2024-02-13T13:39:16.184Z,9.20
2024-02-13T13:41:42.990Z,9.10
2024-02-13T13:44:11.576Z,9.30
2024-02-13T13:46:38.314Z,9.50
2024-02-13T13:49:05.539Z,9.60
2024-02-13T13:51:34.831Z,9.50
2024-02-13T13:54:02.194Z,9.30
2024-02-13T13:56:29.173Z,9.30
2024-02-13T13:58:55.903Z,9.40
2024-02-13T14:01:23.018Z,9.70
2024-02-13T14:03:50.063Z,9.90
2024-02-13T14:06:17.097Z,10.00
2024-02-13T14:08:44.105Z,10.20
2024-02-13T14:11:11.130Z,10.10
2024-02-13T14:13:37.858Z,10.00
2024-02-13T14:16:04.930Z,10.00
2024-02-13T14:18:32.140Z,10.00
2024-02-13T14:21:01.458Z,10.00
2024-02-13T14:23:30.300Z,9.90
2024-02-13T14:25:57.185Z,9.60
2024-02-13T14:28:23.895Z,9.50
2024-02-13T14:30:52.012Z,9.40
2024-02-13T14:33:18.970Z,9.20
2024-02-13T14:35:48.381Z,9.10
2024-02-13T14:38:16.481Z,9.10
2024-02-13T14:40:44.207Z,8.90
2024-02-13T14:43:12.169Z,8.90
2024-02-13T14:45:40.254Z,9.00
2024-02-13T14:48:13.838Z,9.00
2024-02-13T14:50:41.229Z,9.10
2024-02-13T14:53:09.423Z,9.20
2024-02-13T14:55:36.205Z,9.40
2024-02-13T14:58:14.438Z,9.50
2024-02-13T15:00:53.800Z,9.70
2024-02-13T15:03:21.508Z,9.60
2024-02-13T15:05:48.332Z,9.60
2024-02-13T15:08:17.049Z,9.30
2024-02-13T15:10:45.190Z,9.30
2024-02-13T15:13:16.778Z,9.10
2024-02-13T15:15:49.708Z,9.10
2024-02-13T15:18:16.874Z,9.10
2024-02-13T15:20:44.443Z,9.00
2024-02-13T15:23:13.664Z,9.10
2024-02-13T15:25:41.299Z,9.20
2024-02-13T15:28:08.135Z,9.30
2024-02-13T15:30:38.545Z,9.30
2024-02-13T15:33:06.284Z,9.40
2024-02-13T15:35:42.060Z,9.50
2024-02-13T15:38:27.616Z,9.50
2024-02-13T15:41:13.177Z,9.30
2024-02-13T15:43:58.806Z,8.90
2024-02-13T15:46:44.383Z,8.90
2024-02-13T15:49:12.611Z,8.90
2024-02-13T15:51:41.030Z,8.90
2024-02-13T15:54:09.793Z,8.90
2024-02-13T15:56:37.203Z,9.00
2024-02-13T15:59:04.771Z,8.90
2024-02-13T16:01:32.019Z,9.00
2024-02-13T16:04:02.743Z,8.80
2024-02-13T16:06:29.700Z,9.00
2024-02-13T16:08:57.015Z,9.00
2024-02-13T16:11:24.305Z,9.00
2024-02-13T16:13:51.431Z,9.00
2024-02-13T16:16:19.509Z,8.90
2024-02-13T16:18:48.828Z,8.90
2024-02-13T16:21:15.952Z,8.80
2024-02-13T16:23:42.720Z,8.80
2024-02-13T16:26:12.504Z,8.80
2024-02-13T16:28:39.334Z,8.70
2024-02-13T16:31:10.077Z,8.70
2024-02-13T16:33:37.628Z,8.70
2024-02-13T16:36:06.289Z,8.70
2024-02-13T16:38:33.093Z,8.70
2024-02-13T16:40:59.819Z,8.50
2024-02-13T16:43:30.913Z,8.50
2024-02-13T16:45:57.727Z,8.40
2024-02-13T16:48:24.638Z,8.30
2024-02-13T16:50:52.802Z,8.20
2024-02-13T16:53:19.992Z,8.10
2024-02-13T16:55:49.636Z,8.00
2024-02-13T16:58:16.369Z,8.00
2024-02-13T17:00:43.372Z,7.90
2024-02-13T17:03:10.194Z,7.90
2024-02-13T17:05:38.883Z,7.80
2024-02-13T17:08:07.783Z,7.70
2024-02-13T17:10:34.481Z,7.70
2024-02-13T17:13:03.584Z,7.60
2024-02-13T17:15:31.280Z,7.40
2024-02-13T17:17:58.263Z,7.30
2024-02-13T17:20:25.849Z,7.20
2024-02-13T17:22:54.912Z,7.10
2024-02-13T17:25:21.936Z,7.00
2024-02-13T17:27:49.126Z,6.90
2024-02-13T17:30:16.122Z,6.90
2024-02-13T17:32:47.740Z,6.80
2024-02-13T17:35:14.714Z,6.70
2024-02-13T17:37:41.768Z,6.60
2024-02-13T17:40:12.547Z,6.60
2024-02-13T17:42:39.885Z,6.50
2024-02-13T17:45:07.557Z,6.50
2024-02-13T17:47:37.702Z,6.40
2024-02-13T17:50:08.241Z,6.40
2024-02-13T17:52:35.409Z,6.40
2024-02-13T17:55:07.373Z,6.40
2024-02-13T17:57:39.195Z,6.30
2024-02-13T18:00:07.949Z,6.20
2024-02-13T18:02:40.694Z,6.20
2024-02-13T18:05:09.317Z,6.10
2024-02-13T18:07:36.331Z,6.00
2024-02-13T18:10:04.950Z,6.00
2024-02-13T18:12:31.826Z,5.90
2024-02-13T18:14:58.700Z,5.90
2024-02-13T18:17:27.434Z,5.90
2024-02-13T18:19:54.489Z,5.90
2024-02-13T18:22:21.421Z,5.80
2024-02-13T18:24:49.203Z,5.80
2024-02-13T18:27:15.915Z,5.70
2024-02-13T18:29:43.039Z,5.70
2024-02-13T18:32:09.844Z,5.60
2024-02-13T18:34:36.602Z,5.70
2024-02-13T18:37:04.529Z,5.60
2024-02-13T18:39:31.259Z,5.60
2024-02-13T18:41:59.595Z,5.60
2024-02-13T18:44:26.764Z,5.50
2024-02-13T18:46:54.410Z,5.50
2024-02-13T18:49:22.170Z,5.50
2024-02-13T18:51:50.043Z,5.50
2024-02-13T18:54:16.867Z,5.50
2024-02-13T18:56:43.670Z,5.50
2024-02-13T18:59:11.579Z,5.40
2024-02-13T19:01:40.527Z,5.40
2024-02-13T19:04:09.425Z,5.40
2024-02-13T19:06:36.221Z,5.30
2024-02-13T19:09:06.337Z,5.30
2024-02-13T19:11:33.231Z,5.20
2024-02-13T19:14:00.145Z,5.10
2024-02-13T19:16:27.306Z,5.10
2024-02-13T19:18:54.285Z,5.00
2024-02-13T19:21:22.483Z,4.90
2024-02-13T19:23:49.241Z,4.80
2024-02-13T19:26:15.936Z,4.80
2024-02-13T19:28:42.967Z,4.80
2024-02-13T19:31:14.479Z,4.80
2024-02-13T19:33:41.296Z,4.80
2024-02-13T19:36:08.257Z,4.70
2024-02-13T19:38:35.034Z,4.70
2024-02-13T19:41:03.222Z,4.70
2024-02-13T19:43:31.602Z,4.60
2024-02-13T19:45:59.938Z,4.70
2024-02-13T19:48:27.544Z,4.60
2024-02-13T19:50:54.513Z,4.60
2024-02-13T19:53:21.531Z,4.60
2024-02-13T19:55:48.274Z,4.50
2024-02-13T19:58:16.064Z,4.50
2024-02-13T20:00:43.008Z,4.50
2024-02-13T20:03:09.904Z,4.40
2024-02-13T20:05:36.867Z,4.40
2024-02-13T20:08:03.962Z,4.30
2024-02-13T20:10:31.733Z,4.20
2024-02-13T20:12:58.521Z,4.20
2024-02-13T20:15:27.983Z,4.20
2024-02-13T20:17:55.100Z,4.10
2024-02-13T20:20:21.961Z,4.00
2024-02-13T20:22:49.484Z,4.00
2024-02-13T20:25:16.535Z,4.00
2024-02-13T20:27:46.672Z,3.90
2024-02-13T20:30:15.309Z,3.90
2024-02-13T20:32:46.061Z,3.80
2024-02-13T20:35:13.382Z,3.80
2024-02-13T20:37:40.438Z,3.80
2024-02-13T20:40:10.995Z,3.80
2024-02-13T20:42:44.065Z,3.80
2024-02-13T20:45:21.232Z,3.70
2024-02-13T20:47:50.929Z,3.80
2024-02-13T20:50:18.441Z,3.80
2024-02-13T20:52:45.512Z,3.80
2024-02-13T20:55:14.416Z,3.80
2024-02-13T20:57:43.249Z,3.70
2024-02-13T21:00:16.485Z,3.70
2024-02-13T21:02:44.362Z,3.60
2024-02-13T21:05:11.414Z,3.70
2024-02-13T21:07:38.404Z,3.70
2024-02-13T21:10:07.117Z,3.70
2024-02-13T21:12:33.986Z,3.70
2024-02-13T21:15:01.130Z,3.80
2024-02-13T21:17:28.811Z,3.80
2024-02-13T21:19:57.951Z,3.70
2024-02-13T21:22:43.443Z,3.70
2024-02-13T21:25:10.643Z,3.70
2024-02-13T21:27:37.375Z,3.60
2024-02-13T21:30:05.370Z,3.60
2024-02-13T21:32:32.358Z,3.50
2024-02-13T21:34:59.349Z,3.50
2024-02-13T21:37:26.169Z,3.40
2024-02-13T21:39:53.029Z,3.50
2024-02-13T21:42:19.839Z,3.40
2024-02-13T21:44:46.705Z,3.50
2024-02-13T21:47:13.568Z,3.50
2024-02-13T21:49:40.361Z,3.50
2024-02-13T21:52:07.124Z,3.50
2024-02-13T21:54:35.917Z,3.60
2024-02-13T21:57:05.511Z,3.60
2024-02-13T21:59:33.489Z,3.60
2024-02-13T22:02:01.186Z,3.60
2024-02-13T22:04:32.053Z,3.60
2024-02-13T22:07:01.421Z,3.60
2024-02-13T22:09:28.672Z,3.50
2024-02-13T22:11:55.710Z,3.50
2024-02-13T22:14:23.903Z,3.50
2024-02-13T22:16:52.502Z,3.50
2024-02-13T22:19:19.802Z,3.50
2024-02-13T22:21:47.583Z,3.50
2024-02-13T22:24:15.338Z,3.40
2024-02-13T22:26:43.244Z,3.40
2024-02-13T22:29:11.122Z,3.40
2024-02-13T22:31:38.813Z,3.40
2024-02-13T22:34:07.714Z,3.30
2024-02-13T22:36:35.995Z,3.30
2024-02-13T22:39:04.120Z,3.30
2024-02-13T22:41:31.916Z,3.30
2024-02-13T22:44:00.900Z,3.20
2024-02-13T22:46:27.594Z,3.10
2024-02-13T22:48:55.083Z,3.10
2024-02-13T22:51:22.169Z,3.10
2024-02-13T22:53:49.885Z,3.10
2024-02-13T22:56:16.897Z,3.10
2024-02-13T22:58:44.661Z,3.10
2024-02-13T23:01:13.376Z,3.10
2024-02-13T23:03:41.061Z,3.10
2024-02-13T23:06:09.014Z,3.10
2024-02-13T23:08:37.523Z,3.20
2024-02-13T23:11:08.158Z,3.20
2024-02-13T23:13:40.838Z,3.30
2024-02-13T23:16:13.060Z,3.30
2024-02-13T23:18:41.947Z,3.50
2024-02-13T23:21:10.267Z,3.60
2024-02-13T23:23:37.882Z,3.70
2024-02-13T23:26:05.887Z,3.80
2024-02-13T23:28:43.327Z,3.90
2024-02-13T23:31:18.612Z,4.00
2024-02-13T23:33:47.330Z,4.00
2024-02-13T23:36:14.466Z,4.10
2024-02-13T23:38:41.626Z,4.10
2024-02-13T23:41:08.497Z,4.10
2024-02-13T23:43:35.602Z,4.10
2024-02-13T23:46:02.761Z,4.10
2024-02-13T23:48:30.606Z,4.10
2024-02-13T23:50:57.922Z,4.00
2024-02-13T23:53:25.664Z,4.10
2024-02-13T23:55:52.580Z,4.10
2024-02-13T23:58:19.496Z,4.10
